Shaw Island, Washington
Current Conditions -  °F | °C
As of 4:53 PM on Tuesday 21 Oct 2014 (Local Time) from KFHR Reporting Station
Clear Clear  
Wind Chill: 57°   Ceiling: Unl
Heat Index: 57°   Visibility: 10mi
Dew Point: 50°   Wind: 16mph
Humidity: 77%   Direction: 140°SE
Pressure: 29.8"   Gusts: NA
Location:  48.58°N, 122.93°W
Report Text: KFHR 212353Z AUTO 14014KT 10SM CLR 14/10 A2980 RMK AO2 SLP092 T01390100 10156 20133 58008
Loading
Personal Weather Stations






























Interactive Weather Map
Tropical Storm Tracking
New forecast layout! Learn more

10-Day Weather Forecast

Advertisements
Track Severe Weather on mobile